createdAt,value
2023-03-27T00:01:35.892Z,10.04
2023-03-27T00:04:03.812Z,10.13
2023-03-27T00:06:34.659Z,10.08
2023-03-27T00:09:03.857Z,10.05
2023-03-27T00:11:31.870Z,10.07
2023-03-27T00:13:59.964Z,10.10
2023-03-27T00:16:27.733Z,10.12
2023-03-27T00:18:55.556Z,10.08
2023-03-27T00:21:23.236Z,10.04
2023-03-27T00:23:51.425Z,10.00
2023-03-27T00:26:19.044Z,9.94
2023-03-27T00:28:47.640Z,9.97
2023-03-27T00:31:16.127Z,10.02
2023-03-27T00:33:44.331Z,10.00
2023-03-27T00:36:11.353Z,9.97
2023-03-27T00:38:39.840Z,9.85
2023-03-27T00:41:09.190Z,9.76
2023-03-27T00:43:36.800Z,9.72
2023-03-27T00:46:14.651Z,9.73
2023-03-27T00:48:41.840Z,9.69
2023-03-27T00:51:09.443Z,9.64
2023-03-27T00:53:37.313Z,9.60
2023-03-27T00:56:05.226Z,9.65
2023-03-27T00:58:34.410Z,9.61
2023-03-27T01:01:02.585Z,9.58
2023-03-27T01:03:53.793Z,9.53
2023-03-27T01:06:21.555Z,9.55
2023-03-27T01:08:48.786Z,9.58
2023-03-27T01:11:31.206Z,9.57
2023-03-27T01:14:11.040Z,9.62
2023-03-27T01:17:07.793Z,9.60
2023-03-27T01:20:05.881Z,9.51
2023-03-27T01:22:39.378Z,9.40
2023-03-27T01:25:24.516Z,9.37
2023-03-27T01:28:18.261Z,9.37
2023-03-27T01:30:51.210Z,9.40
2023-03-27T01:33:31.034Z,9.41
2023-03-27T01:36:46.520Z,9.44
2023-03-27T01:39:28.650Z,9.47
2023-03-27T01:42:06.996Z,9.46
2023-03-27T01:44:45.777Z,9.45
2023-03-27T01:47:32.655Z,9.40
2023-03-27T01:50:08.352Z,9.37
2023-03-27T01:52:40.914Z,9.38
2023-03-27T01:55:11.664Z,9.40
2023-03-27T01:57:50.392Z,9.44
2023-03-27T02:00:22.036Z,9.46
2023-03-27T02:03:16.503Z,9.47
2023-03-27T02:05:51.031Z,9.32
2023-03-27T02:08:21.350Z,9.19
2023-03-27T02:10:50.571Z,9.19
2023-03-27T02:13:21.494Z,9.18
2023-03-27T02:15:48.907Z,9.16
2023-03-27T02:18:23.306Z,9.15
2023-03-27T02:20:53.782Z,9.12
2023-03-27T02:23:23.097Z,9.11
2023-03-27T02:25:50.859Z,9.11
2023-03-27T02:28:36.716Z,9.15
2023-03-27T02:31:35.352Z,8.97
2023-03-27T02:34:27.099Z,8.87
2023-03-27T02:37:36.014Z,8.80
2023-03-27T02:40:14.980Z,8.75
2023-03-27T02:42:51.839Z,8.75
2023-03-27T02:45:26.546Z,8.70
2023-03-27T02:48:06.044Z,8.72
2023-03-27T02:50:38.386Z,8.76
2023-03-27T02:53:05.933Z,8.88
2023-03-27T02:55:36.321Z,9.02
2023-03-27T02:58:08.582Z,9.11
2023-03-27T03:00:39.731Z,9.24
2023-03-27T03:03:15.351Z,9.33
2023-03-27T03:05:44.108Z,9.44
2023-03-27T03:08:11.790Z,9.49
2023-03-27T03:10:45.146Z,9.52
2023-03-27T03:13:13.410Z,9.49
2023-03-27T03:15:41.248Z,9.56
2023-03-27T03:18:09.244Z,9.67
2023-03-27T03:20:36.956Z,9.75
2023-03-27T03:23:05.075Z,9.85
2023-03-27T03:25:33.202Z,9.85
2023-03-27T03:28:01.319Z,9.85
2023-03-27T03:30:31.866Z,9.84
2023-03-27T03:33:00.307Z,9.89
2023-03-27T03:35:28.278Z,9.89
2023-03-27T03:37:58.891Z,9.95
2023-03-27T03:40:26.837Z,9.96
2023-03-27T03:42:54.454Z,10.03
2023-03-27T03:45:22.493Z,10.08
2023-03-27T03:47:53.119Z,10.07
2023-03-27T03:50:21.331Z,10.06
2023-03-27T03:52:49.293Z,10.06
2023-03-27T03:55:17.720Z,10.04
2023-03-27T03:57:50.239Z,10.04
2023-03-27T04:00:18.732Z,10.05
2023-03-27T04:02:46.472Z,10.00
2023-03-27T04:05:14.476Z,9.95
2023-03-27T04:07:42.463Z,9.89
2023-03-27T04:10:13.585Z,9.86
2023-03-27T04:12:41.264Z,9.84
2023-03-27T04:15:09.360Z,9.82
2023-03-27T04:17:38.434Z,9.75
2023-03-27T04:20:08.925Z,9.73
2023-03-27T04:22:38.226Z,9.65
2023-03-27T04:25:08.365Z,9.63
2023-03-27T04:27:36.370Z,9.56
2023-03-27T04:30:04.857Z,9.54
2023-03-27T04:32:32.986Z,9.51
2023-03-27T04:35:00.972Z,9.45
2023-03-27T04:37:29.046Z,9.35
2023-03-27T04:39:58.405Z,9.32
2023-03-27T04:42:27.185Z,9.29
2023-03-27T04:44:55.567Z,9.21
2023-03-27T04:47:23.928Z,9.18
2023-03-27T04:49:52.118Z,9.15
2023-03-27T04:52:20.807Z,9.15
2023-03-27T04:54:48.823Z,9.13
2023-03-27T04:57:19.202Z,9.18
2023-03-27T04:59:47.208Z,9.19
2023-03-27T05:02:16.239Z,9.16
2023-03-27T05:04:44.734Z,9.12
2023-03-27T05:07:12.385Z,9.09
2023-03-27T05:09:40.142Z,8.98
2023-03-27T05:12:08.948Z,8.85
2023-03-27T05:14:36.817Z,8.84
2023-03-27T05:17:05.621Z,8.85
2023-03-27T05:19:34.201Z,8.88
2023-03-27T05:22:02.704Z,8.94
2023-03-27T05:24:30.589Z,8.95
2023-03-27T05:26:58.720Z,9.01
2023-03-27T05:29:26.887Z,9.05
2023-03-27T05:31:54.743Z,9.07
2023-03-27T05:34:22.791Z,9.12
2023-03-27T05:36:51.288Z,9.06
2023-03-27T05:39:19.215Z,9.00
2023-03-27T05:41:47.584Z,8.99
2023-03-27T05:44:16.129Z,8.93
2023-03-27T05:46:44.068Z,9.01
2023-03-27T05:49:12.282Z,9.07
2023-03-27T05:51:40.422Z,9.09
2023-03-27T05:54:15.155Z,9.17
2023-03-27T05:56:44.065Z,9.24
2023-03-27T05:59:11.840Z,9.32
2023-03-27T06:01:42.862Z,9.29
2023-03-27T06:04:11.182Z,9.32
2023-03-27T06:06:39.374Z,9.30
2023-03-27T06:09:07.811Z,9.30
2023-03-27T06:11:35.500Z,9.35
2023-03-27T06:14:02.944Z,9.22
2023-03-27T06:16:30.782Z,9.19
2023-03-27T06:18:59.176Z,9.17
2023-03-27T06:21:27.544Z,9.11
2023-03-27T06:23:56.409Z,9.06
2023-03-27T06:26:24.896Z,9.15
2023-03-27T06:28:54.324Z,9.17
2023-03-27T06:31:22.159Z,9.32
2023-03-27T06:33:50.291Z,9.25
2023-03-27T06:36:18.197Z,9.45
2023-03-27T06:38:46.475Z,9.55
2023-03-27T06:41:15.549Z,9.59
2023-03-27T06:43:43.622Z,9.53
2023-03-27T06:46:11.929Z,9.62
2023-03-27T06:48:40.000Z,9.72
2023-03-27T06:51:08.075Z,9.79
2023-03-27T06:53:38.106Z,9.88
2023-03-27T06:56:09.271Z,10.08
2023-03-27T06:58:37.424Z,10.16
2023-03-27T07:01:06.426Z,10.12
2023-03-27T07:03:34.543Z,10.13
2023-03-27T07:06:02.320Z,10.12
2023-03-27T07:08:29.979Z,10.08
2023-03-27T07:11:10.588Z,10.16
2023-03-27T07:13:41.245Z,10.26
2023-03-27T07:16:14.167Z,10.28
2023-03-27T07:18:42.219Z,10.35
2023-03-27T07:21:10.263Z,10.50
2023-03-27T07:23:38.631Z,10.66
2023-03-27T07:26:08.277Z,10.82
2023-03-27T07:28:38.766Z,10.89
2023-03-27T07:31:25.995Z,10.88
2023-03-27T07:33:58.723Z,10.89
2023-03-27T07:36:26.612Z,10.95
2023-03-27T07:38:54.525Z,11.01
2023-03-27T07:41:22.914Z,11.05
2023-03-27T07:43:50.659Z,11.16
2023-03-27T07:46:19.046Z,11.44
2023-03-27T07:48:47.154Z,11.35
2023-03-27T07:51:15.451Z,11.47
2023-03-27T07:53:43.746Z,11.68
2023-03-27T07:56:11.675Z,11.85
2023-03-27T07:58:39.770Z,11.88
2023-03-27T08:01:07.865Z,12.08
2023-03-27T08:03:36.091Z,12.15
2023-03-27T08:06:03.441Z,12.13
2023-03-27T08:08:31.380Z,12.21
2023-03-27T08:10:59.803Z,12.25
2023-03-27T08:13:27.858Z,12.20
2023-03-27T08:16:07.986Z,12.18
2023-03-27T08:18:36.546Z,12.16
2023-03-27T08:21:04.548Z,12.15
2023-03-27T08:23:33.895Z,12.18
2023-03-27T08:26:01.713Z,12.23
2023-03-27T08:28:32.731Z,12.23
2023-03-27T08:31:02.930Z,12.26
2023-03-27T08:33:31.043Z,12.38
2023-03-27T08:35:59.514Z,12.51
2023-03-27T08:38:28.709Z,12.59
2023-03-27T08:40:59.208Z,12.73
2023-03-27T08:43:28.950Z,12.95
2023-03-27T08:45:59.208Z,13.10
2023-03-27T08:48:35.364Z,13.34
2023-03-27T08:51:05.608Z,13.48
2023-03-27T08:53:47.555Z,13.74
2023-03-27T08:56:15.423Z,13.87
2023-03-27T08:58:43.587Z,14.08
2023-03-27T09:01:55.382Z,14.26
2023-03-27T09:04:28.181Z,14.45
2023-03-27T09:07:07.341Z,14.76
2023-03-27T09:10:00.628Z,14.76
2023-03-27T09:13:06.781Z,15.14
2023-03-27T09:15:37.733Z,15.10
2023-03-27T09:18:13.593Z,15.26
2023-03-27T09:20:46.431Z,15.35
2023-03-27T09:23:43.063Z,15.53
2023-03-27T09:26:23.355Z,15.60
2023-03-27T09:28:56.249Z,15.62
2023-03-27T09:31:33.457Z,15.75
2023-03-27T09:34:03.988Z,15.74
2023-03-27T09:36:32.368Z,15.72
2023-03-27T09:39:05.848Z,15.88
2023-03-27T09:41:44.974Z,16.08
2023-03-27T09:44:21.114Z,16.13
2023-03-27T09:46:50.132Z,16.14
2023-03-27T09:49:25.522Z,16.05
2023-03-27T09:51:53.826Z,16.04
2023-03-27T09:54:22.453Z,16.19
2023-03-27T09:57:13.706Z,16.03
2023-03-27T09:59:58.579Z,16.19
2023-03-27T10:02:30.121Z,16.35
2023-03-27T10:04:59.311Z,16.45
2023-03-27T10:07:27.464Z,16.63
2023-03-27T10:10:15.869Z,16.59
2023-03-27T10:12:43.491Z,16.68
2023-03-27T10:15:49.240Z,16.86
2023-03-27T10:18:32.506Z,16.84
2023-03-27T10:21:01.616Z,16.99
2023-03-27T10:23:30.536Z,17.04
2023-03-27T10:26:04.441Z,17.17
2023-03-27T10:28:35.341Z,17.32
2023-03-27T10:31:31.831Z,17.42
2023-03-27T10:34:02.131Z,17.37
2023-03-27T10:36:33.688Z,17.53
2023-03-27T10:39:09.046Z,17.55
2023-03-27T10:41:37.211Z,17.74
2023-03-27T10:44:13.022Z,17.96
2023-03-27T10:46:41.360Z,18.11
2023-03-27T10:49:25.647Z,18.07
2023-03-27T10:52:03.206Z,18.45
2023-03-27T10:54:51.773Z,18.65
2023-03-27T10:57:32.000Z,19.26
2023-03-27T11:00:19.798Z,20.37
2023-03-27T11:02:54.408Z,21.51
2023-03-27T11:05:24.198Z,22.07
2023-03-27T11:07:55.918Z,22.43
2023-03-27T11:10:58.385Z,22.82
2023-03-27T11:13:32.423Z,23.54
2023-03-27T11:16:21.285Z,23.87
2023-03-27T11:19:10.804Z,24.21
2023-03-27T11:21:44.667Z,24.60
2023-03-27T11:24:28.762Z,24.16
2023-03-27T11:27:12.274Z,24.15
2023-03-27T11:29:52.744Z,24.16
2023-03-27T11:32:33.708Z,24.14
2023-03-27T11:35:24.385Z,23.70
2023-03-27T11:38:03.529Z,23.03
2023-03-27T11:40:36.438Z,22.89
2023-03-27T11:43:04.390Z,22.68
2023-03-27T11:45:38.178Z,22.90
2023-03-27T11:48:30.115Z,22.92
2023-03-27T11:51:03.490Z,23.03
2023-03-27T11:53:33.481Z,22.54
2023-03-27T11:56:09.138Z,22.53
2023-03-27T11:59:12.983Z,22.96
2023-03-27T12:02:10.049Z,23.17
2023-03-27T12:04:51.541Z,22.21
2023-03-27T12:07:36.092Z,21.69
2023-03-27T12:10:28.519Z,20.89
2023-03-27T12:13:17.624Z,20.53
2023-03-27T12:16:03.012Z,20.27
2023-03-27T12:19:00.562Z,20.08
2023-03-27T12:21:48.803Z,20.22
2023-03-27T12:24:53.407Z,20.84
2023-03-27T12:28:01.433Z,21.44
2023-03-27T12:30:40.149Z,21.65
2023-03-27T12:33:07.128Z,22.82
2023-03-27T12:35:38.621Z,24.01
2023-03-27T12:38:32.254Z,25.32
2023-03-27T12:41:16.074Z,25.79
2023-03-27T12:43:46.846Z,25.77
2023-03-27T12:46:29.094Z,25.03
2023-03-27T12:49:08.099Z,23.96
2023-03-27T12:51:53.743Z,22.23
2023-03-27T12:54:30.537Z,21.66
2023-03-27T12:57:35.923Z,21.10
2023-03-27T13:00:10.434Z,20.74
2023-03-27T13:03:09.761Z,20.45
2023-03-27T13:05:39.939Z,20.28
2023-03-27T13:08:30.145Z,20.23
2023-03-27T13:11:19.473Z,20.14
2023-03-27T13:13:46.584Z,20.12
2023-03-27T13:16:45.720Z,20.06
2023-03-27T13:19:36.775Z,20.08
2023-03-27T13:22:28.446Z,20.19
2023-03-27T13:25:11.396Z,20.98
2023-03-27T13:27:50.154Z,22.42
2023-03-27T13:30:41.426Z,23.77
2023-03-27T13:33:12.988Z,24.91
2023-03-27T13:35:41.959Z,26.13
2023-03-27T13:38:10.680Z,27.23
2023-03-27T13:40:39.888Z,27.56
2023-03-27T13:43:15.248Z,27.87
2023-03-27T13:45:47.180Z,27.06
2023-03-27T13:48:38.911Z,25.88
2023-03-27T13:51:31.123Z,24.97
2023-03-27T13:54:19.977Z,24.14
2023-03-27T13:56:55.465Z,23.43
2023-03-27T14:00:03.335Z,22.82
2023-03-27T14:02:36.509Z,22.29
2023-03-27T14:05:35.678Z,21.96
2023-03-27T14:08:45.017Z,21.52
2023-03-27T14:11:37.959Z,21.25
2023-03-27T14:14:23.453Z,21.03
2023-03-27T14:17:28.096Z,20.83
2023-03-27T14:20:00.907Z,20.70
2023-03-27T14:22:54.027Z,20.59
2023-03-27T14:25:49.814Z,20.43
2023-03-27T14:28:53.960Z,20.27
2023-03-27T14:31:21.321Z,20.17
2023-03-27T14:34:01.893Z,20.09
2023-03-27T14:36:30.337Z,19.99
2023-03-27T14:39:16.621Z,19.95
2023-03-27T14:41:53.007Z,19.90
2023-03-27T14:44:20.729Z,19.86
2023-03-27T14:46:49.058Z,19.81
2023-03-27T14:49:24.776Z,19.68
2023-03-27T14:51:53.725Z,19.53
2023-03-27T14:54:27.182Z,19.45
2023-03-27T14:57:00.474Z,19.41
2023-03-27T14:59:30.600Z,19.35
2023-03-27T15:01:58.546Z,19.32
2023-03-27T15:04:27.147Z,19.31
2023-03-27T15:06:56.912Z,19.28
2023-03-27T15:09:24.971Z,19.21
2023-03-27T15:11:56.192Z,19.15
2023-03-27T15:14:30.375Z,19.10
2023-03-27T15:17:15.663Z,19.09
2023-03-27T15:19:53.849Z,19.08
2023-03-27T15:22:24.059Z,19.14
2023-03-27T15:24:57.304Z,19.15
2023-03-27T15:27:31.805Z,19.18
2023-03-27T15:30:02.365Z,19.22
2023-03-27T15:32:34.146Z,19.19
2023-03-27T15:35:03.482Z,19.14
2023-03-27T15:37:31.882Z,19.15
2023-03-27T15:40:09.513Z,19.19
2023-03-27T15:42:48.184Z,19.29
2023-03-27T15:45:23.125Z,19.34
2023-03-27T15:48:06.859Z,19.37
2023-03-27T15:50:34.950Z,19.34
2023-03-27T15:53:03.309Z,19.35
2023-03-27T15:55:44.649Z,19.34
2023-03-27T15:58:20.518Z,19.30
2023-03-27T16:00:48.229Z,19.19
2023-03-27T16:03:25.524Z,19.14
2023-03-27T16:05:56.757Z,19.21
2023-03-27T16:08:34.946Z,20.60
2023-03-27T16:11:02.310Z,22.96
2023-03-27T16:13:54.928Z,25.42
2023-03-27T16:16:27.233Z,26.19
2023-03-27T16:18:55.377Z,25.97
2023-03-27T16:21:23.852Z,25.12
2023-03-27T16:23:51.920Z,24.33
2023-03-27T16:26:23.135Z,23.88
2023-03-27T16:28:50.777Z,23.01
2023-03-27T16:31:20.043Z,22.27
2023-03-27T16:33:48.203Z,22.26
2023-03-27T16:36:16.225Z,21.74
2023-03-27T16:38:44.019Z,21.00
2023-03-27T16:41:15.968Z,20.58
2023-03-27T16:43:44.382Z,20.95
2023-03-27T16:46:29.776Z,21.70
2023-03-27T16:49:17.007Z,22.24
2023-03-27T16:52:04.475Z,22.31
2023-03-27T16:54:33.721Z,22.05
2023-03-27T16:57:01.119Z,21.74
2023-03-27T16:59:29.218Z,21.44
2023-03-27T17:01:57.383Z,21.19
2023-03-27T17:04:25.685Z,20.90
2023-03-27T17:06:53.548Z,20.68
2023-03-27T17:09:22.738Z,20.42
2023-03-27T17:11:53.947Z,20.31
2023-03-27T17:14:22.103Z,20.26
2023-03-27T17:16:51.265Z,20.25
2023-03-27T17:19:18.852Z,20.13
2023-03-27T17:21:47.205Z,20.01
2023-03-27T17:24:14.912Z,19.74
2023-03-27T17:26:43.458Z,19.41
2023-03-27T17:29:11.498Z,19.04
2023-03-27T17:31:39.477Z,18.64
2023-03-27T17:34:07.870Z,18.30
2023-03-27T17:36:44.936Z,17.93
2023-03-27T17:39:15.504Z,17.57
2023-03-27T17:41:44.110Z,17.26
2023-03-27T17:44:13.267Z,16.91
2023-03-27T17:46:41.200Z,16.66
2023-03-27T17:49:09.005Z,16.42
2023-03-27T17:51:37.205Z,16.19
2023-03-27T17:54:05.898Z,16.05
2023-03-27T17:56:33.932Z,15.98
2023-03-27T17:59:02.859Z,15.88
2023-03-27T18:01:34.030Z,15.74
2023-03-27T18:04:01.838Z,15.50
2023-03-27T18:06:30.310Z,15.42
2023-03-27T18:08:58.235Z,15.33
2023-03-27T18:11:26.018Z,15.24
2023-03-27T18:13:54.086Z,15.15
2023-03-27T18:16:23.231Z,15.06
2023-03-27T18:18:52.581Z,15.04
2023-03-27T18:21:20.985Z,14.99
2023-03-27T18:23:49.117Z,15.01
2023-03-27T18:26:16.738Z,15.15
2023-03-27T18:28:47.936Z,15.18
2023-03-27T18:31:17.837Z,15.26
2023-03-27T18:33:46.060Z,15.27
2023-03-27T18:36:14.187Z,15.13
2023-03-27T18:38:42.320Z,15.24
2023-03-27T18:41:10.415Z,15.22
2023-03-27T18:43:38.855Z,15.18
2023-03-27T18:46:08.483Z,15.08
2023-03-27T18:48:36.489Z,14.97
2023-03-27T18:51:07.971Z,14.86
2023-03-27T18:53:35.816Z,14.76
2023-03-27T18:56:03.890Z,14.68
2023-03-27T18:58:32.281Z,14.55
2023-03-27T19:01:00.081Z,14.54
2023-03-27T19:03:30.365Z,14.53
2023-03-27T19:06:00.411Z,14.55
2023-03-27T19:08:28.616Z,14.48
2023-03-27T19:10:57.900Z,14.38
2023-03-27T19:13:25.956Z,14.34
2023-03-27T19:15:54.034Z,14.37
2023-03-27T19:18:22.139Z,14.32
2023-03-27T19:20:50.333Z,14.19
2023-03-27T19:23:18.207Z,14.10
2023-03-27T19:25:49.588Z,14.07
2023-03-27T19:28:17.448Z,14.03
2023-03-27T19:30:48.402Z,14.01
2023-03-27T19:33:15.908Z,13.94
2023-03-27T19:35:44.087Z,13.87
2023-03-27T19:38:11.959Z,13.66
2023-03-27T19:40:39.663Z,13.51
2023-03-27T19:43:07.796Z,13.43
2023-03-27T19:45:36.021Z,13.35
2023-03-27T19:48:04.099Z,13.26
2023-03-27T19:50:31.433Z,13.20
2023-03-27T19:53:08.190Z,13.16
2023-03-27T19:55:36.914Z,13.11
2023-03-27T19:58:04.502Z,13.07
2023-03-27T20:00:32.280Z,12.98
2023-03-27T20:03:00.357Z,12.91
2023-03-27T20:05:29.733Z,12.87
2023-03-27T20:07:57.380Z,12.82
2023-03-27T20:10:27.069Z,12.75
2023-03-27T20:12:54.771Z,12.67
2023-03-27T20:15:22.609Z,12.64
2023-03-27T20:17:53.563Z,12.58
2023-03-27T20:20:21.576Z,12.57
2023-03-27T20:22:57.511Z,12.56
2023-03-27T20:25:25.455Z,12.49
2023-03-27T20:27:53.113Z,12.44
2023-03-27T20:30:21.483Z,12.39
2023-03-27T20:32:49.155Z,12.35
2023-03-27T20:35:24.184Z,12.31
2023-03-27T20:37:57.798Z,12.23
2023-03-27T20:40:26.357Z,12.16
2023-03-27T20:43:03.487Z,12.13
2023-03-27T20:45:31.561Z,12.11
2023-03-27T20:48:05.681Z,12.04
2023-03-27T20:50:35.362Z,11.97
2023-03-27T20:53:04.856Z,11.93
2023-03-27T20:55:41.561Z,11.91
2023-03-27T20:58:20.145Z,11.79
2023-03-27T21:00:48.883Z,11.76
2023-03-27T21:03:16.844Z,11.75
2023-03-27T21:05:44.805Z,11.84
2023-03-27T21:08:12.884Z,11.86
2023-03-27T21:10:40.763Z,11.85
2023-03-27T21:13:08.345Z,11.85
2023-03-27T21:15:36.373Z,11.85
2023-03-27T21:18:05.423Z,11.85
2023-03-27T21:20:35.360Z,11.81
2023-03-27T21:23:03.634Z,11.76
2023-03-27T21:25:31.714Z,11.72
2023-03-27T21:27:59.344Z,11.68
2023-03-27T21:30:46.539Z,11.61
2023-03-27T21:33:16.178Z,11.53
2023-03-27T21:35:45.840Z,11.46
2023-03-27T21:38:14.595Z,11.39
2023-03-27T21:40:41.598Z,11.35
2023-03-27T21:43:09.484Z,11.33
2023-03-27T21:45:40.434Z,11.28
2023-03-27T21:48:10.571Z,11.13
2023-03-27T21:50:39.739Z,11.04
2023-03-27T21:53:08.021Z,11.00
2023-03-27T21:55:35.938Z,10.85
2023-03-27T21:58:04.472Z,10.65
2023-03-27T22:00:32.574Z,10.64
2023-03-27T22:03:01.040Z,10.58
2023-03-27T22:05:29.111Z,10.54
2023-03-27T22:07:57.755Z,10.57
2023-03-27T22:10:25.443Z,10.66
2023-03-27T22:12:53.273Z,10.73
2023-03-27T22:15:21.211Z,10.76
2023-03-27T22:17:49.142Z,10.75
2023-03-27T22:20:17.220Z,10.82
2023-03-27T22:22:45.111Z,10.87
2023-03-27T22:25:13.782Z,10.89
2023-03-27T22:27:42.035Z,10.92
2023-03-27T22:30:12.781Z,10.91
2023-03-27T22:32:43.418Z,10.87
2023-03-27T22:35:11.365Z,10.86
2023-03-27T22:37:39.471Z,10.84
2023-03-27T22:40:10.574Z,10.79
2023-03-27T22:42:38.330Z,10.73
2023-03-27T22:45:06.928Z,10.69
2023-03-27T22:47:36.120Z,10.64
2023-03-27T22:50:06.455Z,10.61
2023-03-27T22:52:34.072Z,10.58
2023-03-27T22:55:01.998Z,10.53
2023-03-27T22:57:30.107Z,10.50
2023-03-27T22:59:58.162Z,10.45
2023-03-27T23:02:26.007Z,10.41
2023-03-27T23:04:54.183Z,10.39
2023-03-27T23:07:21.923Z,10.36
2023-03-27T23:09:50.383Z,10.35
2023-03-27T23:12:18.482Z,10.18
2023-03-27T23:14:46.299Z,9.99
2023-03-27T23:17:14.106Z,9.91
2023-03-27T23:19:41.995Z,9.83
2023-03-27T23:22:10.545Z,9.79
2023-03-27T23:24:39.003Z,9.78
2023-03-27T23:27:08.589Z,9.75
2023-03-27T23:29:36.740Z,9.70
2023-03-27T23:32:05.050Z,9.65
2023-03-27T23:34:33.177Z,9.41
2023-03-27T23:37:00.773Z,9.14
2023-03-27T23:39:28.517Z,8.94
2023-03-27T23:41:57.239Z,8.86
2023-03-27T23:44:25.303Z,8.78
2023-03-27T23:46:56.511Z,8.63
2023-03-27T23:49:24.550Z,8.52
2023-03-27T23:51:53.141Z,8.44
2023-03-27T23:54:22.265Z,8.39
2023-03-27T23:56:50.528Z,8.32
2023-03-27T23:59:18.653Z,8.14
